sensor_id;sensor_type;location;lat;lon;timestamp;pressure;altitude;pressure_sealevel;temperature;humidity
64967;BME280;51710;38.732;-121.358;2023-05-18T00:01:11;100370.78;;;33.63;31.50
64967;BME280;51710;38.732;-121.358;2023-05-18T00:03:39;100365.78;;;33.65;31.28
64967;BME280;51710;38.732;-121.358;2023-05-18T00:06:06;100369.81;;;33.67;30.48
64967;BME280;51710;38.732;-121.358;2023-05-18T00:08:36;100374.16;;;33.60;30.81
64967;BME280;51710;38.732;-121.358;2023-05-18T00:11:04;100361.81;;;33.57;31.55
64967;BME280;51710;38.732;-121.358;2023-05-18T00:13:31;100363.13;;;33.60;31.57
64967;BME280;51710;38.732;-121.358;2023-05-18T00:15:57;100362.66;;;33.58;32.38
64967;BME280;51710;38.732;-121.358;2023-05-18T00:18:23;100359.25;;;33.61;31.14
64967;BME280;51710;38.732;-121.358;2023-05-18T00:20:54;100356.97;;;33.63;30.60
64967;BME280;51710;38.732;-121.358;2023-05-18T00:23:32;100365.88;;;33.60;30.63
64967;BME280;51710;38.732;-121.358;2023-05-18T00:25:59;100362.66;;;33.58;31.15
64967;BME280;51710;38.732;-121.358;2023-05-18T00:28:26;100357.59;;;33.60;32.15
64967;BME280;51710;38.732;-121.358;2023-05-18T00:30:54;100358.25;;;33.57;31.88
64967;BME280;51710;38.732;-121.358;2023-05-18T00:33:21;100357.88;;;33.50;31.50
64967;BME280;51710;38.732;-121.358;2023-05-18T00:35:47;100348.13;;;33.44;30.63
64967;BME280;51710;38.732;-121.358;2023-05-18T00:38:13;100349.91;;;33.48;30.18
64967;BME280;51710;38.732;-121.358;2023-05-18T00:40:40;100348.16;;;33.52;29.93
64967;BME280;51710;38.732;-121.358;2023-05-18T00:43:07;100348.34;;;33.56;30.94
64967;BME280;51710;38.732;-121.358;2023-05-18T00:45:33;100351.75;;;33.53;30.09
64967;BME280;51710;38.732;-121.358;2023-05-18T00:47:59;100344.25;;;33.53;29.52
64967;BME280;51710;38.732;-121.358;2023-05-18T00:50:26;100341.47;;;33.53;30.51
64967;BME280;51710;38.732;-121.358;2023-05-18T00:52:52;100339.03;;;33.52;30.28
64967;BME280;51710;38.732;-121.358;2023-05-18T00:55:19;100342.13;;;33.50;30.11
64967;BME280;51710;38.732;-121.358;2023-05-18T00:57:46;100340.34;;;33.46;30.29
64967;BME280;51710;38.732;-121.358;2023-05-18T01:00:14;100339.81;;;33.44;30.14
64967;BME280;51710;38.732;-121.358;2023-05-18T01:02:41;100340.41;;;33.41;30.51
64967;BME280;51710;38.732;-121.358;2023-05-18T01:05:11;100334.41;;;33.39;30.60
64967;BME280;51710;38.732;-121.358;2023-05-18T01:07:39;100341.56;;;33.40;29.99
64967;BME280;51710;38.732;-121.358;2023-05-18T01:10:13;100346.91;;;33.36;29.75
64967;BME280;51710;38.732;-121.358;2023-05-18T01:15:21;100339.22;;;33.25;31.05
64967;BME280;51710;38.732;-121.358;2023-05-18T01:18:05;100337.88;;;33.22;29.86
64967;BME280;51710;38.732;-121.358;2023-05-18T01:28:50;100334.66;;;32.98;31.26
64967;BME280;51710;38.732;-121.358;2023-05-18T01:31:17;100336.09;;;32.95;31.62
64967;BME280;51710;38.732;-121.358;2023-05-18T01:33:43;100332.91;;;32.88;30.79
64967;BME280;51710;38.732;-121.358;2023-05-18T01:36:10;100337.59;;;32.79;30.78
64967;BME280;51710;38.732;-121.358;2023-05-18T01:38:37;100336.38;;;32.72;30.92
64967;BME280;51710;38.732;-121.358;2023-05-18T01:41:09;100340.88;;;32.68;30.70
64967;BME280;51710;38.732;-121.358;2023-05-18T01:44:07;100338.75;;;32.65;31.69
64967;BME280;51710;38.732;-121.358;2023-05-18T01:46:34;100340.81;;;32.59;31.55
64967;BME280;51710;38.732;-121.358;2023-05-18T01:49:08;100332.78;;;32.49;32.26
64967;BME280;51710;38.732;-121.358;2023-05-18T01:51:41;100337.78;;;32.47;32.30
64967;BME280;51710;38.732;-121.358;2023-05-18T01:54:10;100333.63;;;32.50;32.51
64967;BME280;51710;38.732;-121.358;2023-05-18T01:56:38;100336.75;;;32.57;33.06
64967;BME280;51710;38.732;-121.358;2023-05-18T01:59:05;100334.25;;;32.69;32.87
64967;BME280;51710;38.732;-121.358;2023-05-18T02:01:32;100338.63;;;32.70;31.96
64967;BME280;51710;38.732;-121.358;2023-05-18T02:03:58;100340.31;;;32.57;32.13
64967;BME280;51710;38.732;-121.358;2023-05-18T02:06:24;100342.38;;;32.38;31.94
64967;BME280;51710;38.732;-121.358;2023-05-18T02:08:51;100342.84;;;32.18;31.33
64967;BME280;51710;38.732;-121.358;2023-05-18T02:11:17;100346.13;;;31.93;31.33
64967;BME280;51710;38.732;-121.358;2023-05-18T02:13:43;100337.25;;;31.69;30.53
64967;BME280;51710;38.732;-121.358;2023-05-18T02:16:10;100330.38;;;31.53;30.99
64967;BME280;51710;38.732;-121.358;2023-05-18T02:18:36;100332.81;;;31.41;30.79
64967;BME280;51710;38.732;-121.358;2023-05-18T02:21:03;100337.91;;;31.34;30.72
64967;BME280;51710;38.732;-121.358;2023-05-18T02:23:29;100331.44;;;31.25;30.78
64967;BME280;51710;38.732;-121.358;2023-05-18T02:25:56;100335.41;;;31.19;31.28
64967;BME280;51710;38.732;-121.358;2023-05-18T02:28:22;100336.09;;;31.11;30.92
64967;BME280;51710;38.732;-121.358;2023-05-18T02:30:48;100334.97;;;30.98;30.87
64967;BME280;51710;38.732;-121.358;2023-05-18T02:33:15;100333.72;;;30.90;31.04
64967;BME280;51710;38.732;-121.358;2023-05-18T02:35:42;100333.44;;;31.06;31.27
64967;BME280;51710;38.732;-121.358;2023-05-18T02:38:08;100340.06;;;31.37;31.15
64967;BME280;51710;38.732;-121.358;2023-05-18T02:40:35;100332.31;;;31.52;30.80
64967;BME280;51710;38.732;-121.358;2023-05-18T02:43:01;100335.59;;;31.54;31.30
64967;BME280;51710;38.732;-121.358;2023-05-18T02:45:28;100339.88;;;31.47;31.53
64967;BME280;51710;38.732;-121.358;2023-05-18T02:47:54;100339.59;;;31.30;31.79
64967;BME280;51710;38.732;-121.358;2023-05-18T02:50:20;100342.00;;;31.04;31.81
64967;BME280;51710;38.732;-121.358;2023-05-18T02:52:47;100329.75;;;30.78;31.79
64967;BME280;51710;38.732;-121.358;2023-05-18T02:55:14;100338.03;;;30.59;32.09
64967;BME280;51710;38.732;-121.358;2023-05-18T02:57:41;100338.53;;;30.43;32.07
64967;BME280;51710;38.732;-121.358;2023-05-18T03:00:13;100335.81;;;30.24;32.56
64967;BME280;51710;38.732;-121.358;2023-05-18T03:02:41;100337.09;;;30.08;32.96
64967;BME280;51710;38.732;-121.358;2023-05-18T03:05:09;100340.28;;;29.97;33.18
64967;BME280;51710;38.732;-121.358;2023-05-18T03:07:35;100349.50;;;29.82;32.93
64967;BME280;51710;38.732;-121.358;2023-05-18T03:10:04;100356.50;;;29.69;33.59
64967;BME280;51710;38.732;-121.358;2023-05-18T03:12:32;100350.03;;;29.55;33.31
64967;BME280;51710;38.732;-121.358;2023-05-18T03:14:58;100351.84;;;29.41;33.76
64967;BME280;51710;38.732;-121.358;2023-05-18T03:17:25;100345.13;;;29.29;33.42
64967;BME280;51710;38.732;-121.358;2023-05-18T03:19:51;100352.34;;;29.20;33.72
64967;BME280;51710;38.732;-121.358;2023-05-18T03:22:17;100362.00;;;29.12;34.01
64967;BME280;51710;38.732;-121.358;2023-05-18T03:24:43;100360.66;;;29.05;34.21
64967;BME280;51710;38.732;-121.358;2023-05-18T03:27:10;100356.94;;;28.96;34.64
64967;BME280;51710;38.732;-121.358;2023-05-18T03:29:37;100354.78;;;28.88;34.33
64967;BME280;51710;38.732;-121.358;2023-05-18T03:32:04;100357.66;;;28.72;34.74
64967;BME280;51710;38.732;-121.358;2023-05-18T03:34:30;100364.59;;;28.60;34.87
64967;BME280;51710;38.732;-121.358;2023-05-18T03:36:56;100361.34;;;28.48;35.12
64967;BME280;51710;38.732;-121.358;2023-05-18T03:39:22;100361.66;;;28.41;35.24
64967;BME280;51710;38.732;-121.358;2023-05-18T03:41:49;100362.78;;;28.35;35.47
64967;BME280;51710;38.732;-121.358;2023-05-18T03:44:15;100369.13;;;28.31;35.43
64967;BME280;51710;38.732;-121.358;2023-05-18T03:46:41;100369.69;;;28.23;35.49
64967;BME280;51710;38.732;-121.358;2023-05-18T03:49:07;100373.84;;;28.15;35.92
64967;BME280;51710;38.732;-121.358;2023-05-18T03:51:33;100381.84;;;28.07;36.35
64967;BME280;51710;38.732;-121.358;2023-05-18T03:54:00;100389.81;;;27.98;36.82
64967;BME280;51710;38.732;-121.358;2023-05-18T03:56:26;100391.47;;;27.89;36.87
64967;BME280;51710;38.732;-121.358;2023-05-18T03:58:55;100395.88;;;27.80;37.22
64967;BME280;51710;38.732;-121.358;2023-05-18T04:01:23;100400.25;;;27.71;37.46
64967;BME280;51710;38.732;-121.358;2023-05-18T04:03:50;100402.75;;;27.62;37.55
64967;BME280;51710;38.732;-121.358;2023-05-18T04:06:16;100399.47;;;27.55;37.96
64967;BME280;51710;38.732;-121.358;2023-05-18T04:08:42;100410.72;;;27.49;38.16
64967;BME280;51710;38.732;-121.358;2023-05-18T04:11:10;100415.09;;;27.40;38.44
64967;BME280;51710;38.732;-121.358;2023-05-18T04:13:37;100420.59;;;27.30;38.59
64967;BME280;51710;38.732;-121.358;2023-05-18T04:16:03;100426.28;;;27.23;38.55
64967;BME280;51710;38.732;-121.358;2023-05-18T04:18:30;100435.03;;;27.15;38.54
64967;BME280;51710;38.732;-121.358;2023-05-18T04:20:56;100429.84;;;27.09;39.27
64967;BME280;51710;38.732;-121.358;2023-05-18T04:23:23;100437.78;;;27.00;39.66
64967;BME280;51710;38.732;-121.358;2023-05-18T04:25:49;100441.84;;;26.93;39.81
64967;BME280;51710;38.732;-121.358;2023-05-18T04:28:15;100440.19;;;26.82;40.28
64967;BME280;51710;38.732;-121.358;2023-05-18T04:30:41;100439.56;;;26.64;40.59
64967;BME280;51710;38.732;-121.358;2023-05-18T04:33:08;100440.31;;;26.45;41.02
64967;BME280;51710;38.732;-121.358;2023-05-18T04:35:35;100444.66;;;26.31;41.45
64967;BME280;51710;38.732;-121.358;2023-05-18T04:38:01;100447.59;;;26.19;41.49
64967;BME280;51710;38.732;-121.358;2023-05-18T04:40:27;100454.09;;;26.08;42.01
64967;BME280;51710;38.732;-121.358;2023-05-18T04:42:58;100459.44;;;25.93;42.11
64967;BME280;51710;38.732;-121.358;2023-05-18T04:45:25;100454.97;;;25.77;42.87
64967;BME280;51710;38.732;-121.358;2023-05-18T04:47:52;100458.16;;;25.59;42.93
64967;BME280;51710;38.732;-121.358;2023-05-18T04:50:19;100456.94;;;25.45;43.14
64967;BME280;51710;38.732;-121.358;2023-05-18T04:52:47;100466.09;;;25.34;43.43
64967;BME280;51710;38.732;-121.358;2023-05-18T04:55:21;100470.94;;;25.27;43.71
64967;BME280;51710;38.732;-121.358;2023-05-18T04:57:53;100466.53;;;25.21;43.93
64967;BME280;51710;38.732;-121.358;2023-05-18T05:00:23;100472.19;;;25.14;44.01
64967;BME280;51710;38.732;-121.358;2023-05-18T05:02:51;100463.38;;;25.07;44.97
64967;BME280;51710;38.732;-121.358;2023-05-18T05:05:17;100460.88;;;25.01;44.79
64967;BME280;51710;38.732;-121.358;2023-05-18T05:07:44;100468.69;;;24.92;45.36
64967;BME280;51710;38.732;-121.358;2023-05-18T05:10:10;100471.06;;;24.84;45.20
64967;BME280;51710;38.732;-121.358;2023-05-18T05:12:37;100470.13;;;24.73;45.52
64967;BME280;51710;38.732;-121.358;2023-05-18T05:15:04;100467.56;;;24.67;45.72
64967;BME280;51710;38.732;-121.358;2023-05-18T05:17:30;100465.03;;;24.60;45.79
64967;BME280;51710;38.732;-121.358;2023-05-18T05:19:56;100471.50;;;24.54;46.18
64967;BME280;51710;38.732;-121.358;2023-05-18T05:22:23;100470.06;;;24.46;46.45
64967;BME280;51710;38.732;-121.358;2023-05-18T05:24:49;100462.34;;;24.38;46.69
64967;BME280;51710;38.732;-121.358;2023-05-18T05:27:15;100467.16;;;24.31;46.81
64967;BME280;51710;38.732;-121.358;2023-05-18T05:29:43;100461.06;;;24.24;46.87
64967;BME280;51710;38.732;-121.358;2023-05-18T05:32:09;100464.78;;;24.18;47.25
64967;BME280;51710;38.732;-121.358;2023-05-18T05:34:36;100472.41;;;24.16;47.26
64967;BME280;51710;38.732;-121.358;2023-05-18T05:37:03;100481.00;;;24.08;47.59
64967;BME280;51710;38.732;-121.358;2023-05-18T05:39:29;100482.22;;;24.01;47.77
64967;BME280;51710;38.732;-121.358;2023-05-18T05:41:56;100478.03;;;23.93;48.24
64967;BME280;51710;38.732;-121.358;2023-05-18T05:44:22;100485.03;;;23.89;48.34
64967;BME280;51710;38.732;-121.358;2023-05-18T05:46:48;100486.06;;;23.83;48.24
64967;BME280;51710;38.732;-121.358;2023-05-18T05:49:14;100490.34;;;23.79;48.29
64967;BME280;51710;38.732;-121.358;2023-05-18T05:51:41;100487.53;;;23.74;48.51
64967;BME280;51710;38.732;-121.358;2023-05-18T05:54:07;100482.81;;;23.70;48.57
64967;BME280;51710;38.732;-121.358;2023-05-18T05:56:33;100495.53;;;23.64;48.68
64967;BME280;51710;38.732;-121.358;2023-05-18T05:58:59;100501.97;;;23.58;48.97
64967;BME280;51710;38.732;-121.358;2023-05-18T06:01:26;100499.75;;;23.55;49.13
64967;BME280;51710;38.732;-121.358;2023-05-18T06:03:54;100507.31;;;23.53;49.27
64967;BME280;51710;38.732;-121.358;2023-05-18T06:06:20;100502.06;;;23.47;49.50
64967;BME280;51710;38.732;-121.358;2023-05-18T06:08:46;100497.25;;;23.37;49.50
64967;BME280;51710;38.732;-121.358;2023-05-18T06:11:12;100500.41;;;23.29;49.89
64967;BME280;51710;38.732;-121.358;2023-05-18T06:13:39;100502.41;;;23.22;50.09
64967;BME280;51710;38.732;-121.358;2023-05-18T06:16:05;100501.75;;;23.15;50.07
64967;BME280;51710;38.732;-121.358;2023-05-18T06:18:34;100507.09;;;23.10;50.08
64967;BME280;51710;38.732;-121.358;2023-05-18T06:21:01;100502.28;;;23.00;50.04
64967;BME280;51710;38.732;-121.358;2023-05-18T06:23:27;100506.19;;;22.93;50.33
64967;BME280;51710;38.732;-121.358;2023-05-18T06:25:53;100506.34;;;22.86;50.32
64967;BME280;51710;38.732;-121.358;2023-05-18T06:28:19;100506.00;;;22.83;50.42
64967;BME280;51710;38.732;-121.358;2023-05-18T06:30:46;100505.66;;;22.79;50.59
64967;BME280;51710;38.732;-121.358;2023-05-18T06:33:12;100507.47;;;22.74;50.45
64967;BME280;51710;38.732;-121.358;2023-05-18T06:35:39;100506.22;;;22.65;50.57
64967;BME280;51710;38.732;-121.358;2023-05-18T06:38:08;100504.09;;;22.55;50.43
64967;BME280;51710;38.732;-121.358;2023-05-18T06:40:34;100506.00;;;22.43;50.38
64967;BME280;51710;38.732;-121.358;2023-05-18T06:43:00;100514.28;;;22.37;50.57
64967;BME280;51710;38.732;-121.358;2023-05-18T06:45:26;100513.81;;;22.28;50.55
64967;BME280;51710;38.732;-121.358;2023-05-18T06:47:53;100515.59;;;22.22;50.92
64967;BME280;51710;38.732;-121.358;2023-05-18T06:50:19;100517.13;;;22.18;50.99
64967;BME280;51710;38.732;-121.358;2023-05-18T06:52:46;100520.09;;;22.17;51.22
64967;BME280;51710;38.732;-121.358;2023-05-18T06:55:12;100518.22;;;22.17;51.12
64967;BME280;51710;38.732;-121.358;2023-05-18T06:57:41;100517.03;;;22.13;51.17
64967;BME280;51710;38.732;-121.358;2023-05-18T07:00:07;100520.09;;;22.05;51.00
64967;BME280;51710;38.732;-121.358;2023-05-18T07:02:35;100524.81;;;21.98;51.10
64967;BME280;51710;38.732;-121.358;2023-05-18T07:05:01;100533.53;;;21.89;51.26
64967;BME280;51710;38.732;-121.358;2023-05-18T07:07:30;100528.69;;;21.79;51.49
64967;BME280;51710;38.732;-121.358;2023-05-18T07:09:56;100528.53;;;21.74;51.75
64967;BME280;51710;38.732;-121.358;2023-05-18T07:12:23;100523.59;;;21.71;52.01
64967;BME280;51710;38.732;-121.358;2023-05-18T07:14:51;100520.75;;;21.66;52.28
64967;BME280;51710;38.732;-121.358;2023-05-18T07:17:17;100520.63;;;21.61;52.31
64967;BME280;51710;38.732;-121.358;2023-05-18T07:19:44;100522.50;;;21.61;52.20
64967;BME280;51710;38.732;-121.358;2023-05-18T07:22:10;100524.88;;;21.57;52.23
64967;BME280;51710;38.732;-121.358;2023-05-18T07:24:36;100519.31;;;21.52;52.14
64967;BME280;51710;38.732;-121.358;2023-05-18T07:27:03;100528.16;;;21.48;52.57
64967;BME280;51710;38.732;-121.358;2023-05-18T07:29:29;100526.13;;;21.43;52.70
64967;BME280;51710;38.732;-121.358;2023-05-18T07:31:56;100530.38;;;21.39;52.44
64967;BME280;51710;38.732;-121.358;2023-05-18T07:34:23;100536.72;;;21.33;53.25
64967;BME280;51710;38.732;-121.358;2023-05-18T07:36:52;100523.88;;;21.29;53.04
64967;BME280;51710;38.732;-121.358;2023-05-18T07:39:19;100531.03;;;21.23;53.60
64967;BME280;51710;38.732;-121.358;2023-05-18T07:41:47;100529.00;;;21.18;53.29
64967;BME280;51710;38.732;-121.358;2023-05-18T07:44:14;100533.50;;;21.13;53.63
64967;BME280;51710;38.732;-121.358;2023-05-18T07:46:41;100525.19;;;21.08;53.84
64967;BME280;51710;38.732;-121.358;2023-05-18T07:49:08;100527.19;;;21.01;53.75
64967;BME280;51710;38.732;-121.358;2023-05-18T07:51:37;100531.81;;;20.94;53.67
64967;BME280;51710;38.732;-121.358;2023-05-18T07:54:03;100534.03;;;20.85;54.18
64967;BME280;51710;38.732;-121.358;2023-05-18T07:56:30;100523.28;;;20.79;54.01
64967;BME280;51710;38.732;-121.358;2023-05-18T07:58:56;100525.25;;;20.72;54.24
64967;BME280;51710;38.732;-121.358;2023-05-18T08:01:22;100528.28;;;20.64;54.25
64967;BME280;51710;38.732;-121.358;2023-05-18T08:03:53;100519.44;;;20.57;54.70
64967;BME280;51710;38.732;-121.358;2023-05-18T08:06:20;100520.09;;;20.52;54.87
64967;BME280;51710;38.732;-121.358;2023-05-18T08:08:46;100521.63;;;20.48;54.96
64967;BME280;51710;38.732;-121.358;2023-05-18T08:11:13;100528.16;;;20.41;55.15
64967;BME280;51710;38.732;-121.358;2023-05-18T08:13:39;100532.19;;;20.32;55.42
64967;BME280;51710;38.732;-121.358;2023-05-18T08:16:06;100530.97;;;20.28;55.72
64967;BME280;51710;38.732;-121.358;2023-05-18T08:18:32;100520.16;;;20.28;55.72
64967;BME280;51710;38.732;-121.358;2023-05-18T08:20:59;100512.28;;;20.26;55.42
64967;BME280;51710;38.732;-121.358;2023-05-18T08:23:29;100514.84;;;20.21;55.79
64967;BME280;51710;38.732;-121.358;2023-05-18T08:25:56;100517.59;;;20.14;56.02
64967;BME280;51710;38.732;-121.358;2023-05-18T08:28:24;100520.41;;;20.01;55.89
64967;BME280;51710;38.732;-121.358;2023-05-18T08:30:52;100510.81;;;19.87;56.72
64967;BME280;51710;38.732;-121.358;2023-05-18T08:33:18;100520.03;;;19.80;56.99
64967;BME280;51710;38.732;-121.358;2023-05-18T08:35:45;100525.88;;;19.77;56.95
64967;BME280;51710;38.732;-121.358;2023-05-18T08:38:12;100526.97;;;19.69;57.03
64967;BME280;51710;38.732;-121.358;2023-05-18T08:40:45;100518.09;;;19.62;57.68
64967;BME280;51710;38.732;-121.358;2023-05-18T08:43:20;100527.84;;;19.63;57.36
64967;BME280;51710;38.732;-121.358;2023-05-18T08:46:20;100525.81;;;19.59;57.37
64967;BME280;51710;38.732;-121.358;2023-05-18T08:48:50;100521.28;;;19.53;57.84
64967;BME280;51710;38.732;-121.358;2023-05-18T08:51:19;100530.06;;;19.48;57.96
64967;BME280;51710;38.732;-121.358;2023-05-18T08:53:51;100522.81;;;19.42;57.99
64967;BME280;51710;38.732;-121.358;2023-05-18T08:56:24;100533.28;;;19.32;58.17
64967;BME280;51710;38.732;-121.358;2023-05-18T08:58:55;100530.81;;;19.24;58.25
64967;BME280;51710;38.732;-121.358;2023-05-18T09:01:25;100531.91;;;19.17;58.61
64967;BME280;51710;38.732;-121.358;2023-05-18T09:03:56;100529.88;;;19.12;58.52
64967;BME280;51710;38.732;-121.358;2023-05-18T09:06:23;100538.38;;;19.09;58.83
64967;BME280;51710;38.732;-121.358;2023-05-18T09:08:52;100526.16;;;19.06;58.75
64967;BME280;51710;38.732;-121.358;2023-05-18T09:11:21;100529.06;;;19.05;59.12
64967;BME280;51710;38.732;-121.358;2023-05-18T09:13:50;100532.00;;;19.03;59.19
64967;BME280;51710;38.732;-121.358;2023-05-18T09:16:19;100525.59;;;18.98;59.10
64967;BME280;51710;38.732;-121.358;2023-05-18T09:18:46;100524.97;;;18.96;59.29
64967;BME280;51710;38.732;-121.358;2023-05-18T09:21:12;100529.13;;;18.92;59.27
64967;BME280;51710;38.732;-121.358;2023-05-18T09:23:39;100526.44;;;18.92;59.54
64967;BME280;51710;38.732;-121.358;2023-05-18T09:26:08;100522.72;;;18.86;59.78
64967;BME280;51710;38.732;-121.358;2023-05-18T09:28:40;100526.31;;;18.80;59.62
64967;BME280;51710;38.732;-121.358;2023-05-18T09:31:08;100526.56;;;18.72;59.60
64967;BME280;51710;38.732;-121.358;2023-05-18T09:33:38;100521.00;;;18.61;59.89
64967;BME280;51710;38.732;-121.358;2023-05-18T09:36:06;100521.47;;;18.51;60.18
64967;BME280;51710;38.732;-121.358;2023-05-18T09:38:37;100515.66;;;18.41;60.33
64967;BME280;51710;38.732;-121.358;2023-05-18T09:41:08;100526.06;;;18.31;60.64
64967;BME280;51710;38.732;-121.358;2023-05-18T09:43:35;100528.53;;;18.33;60.63
64967;BME280;51710;38.732;-121.358;2023-05-18T09:46:06;100527.50;;;18.34;60.76
64967;BME280;51710;38.732;-121.358;2023-05-18T09:48:35;100524.19;;;18.32;61.11
64967;BME280;51710;38.732;-121.358;2023-05-18T09:51:04;100523.34;;;18.31;60.83
64967;BME280;51710;38.732;-121.358;2023-05-18T09:53:34;100518.19;;;18.30;61.00
64967;BME280;51710;38.732;-121.358;2023-05-18T09:56:05;100519.81;;;18.31;60.86
64967;BME280;51710;38.732;-121.358;2023-05-18T09:58:38;100517.34;;;18.29;60.35
64967;BME280;51710;38.732;-121.358;2023-05-18T10:01:05;100519.00;;;18.24;60.69
64967;BME280;51710;38.732;-121.358;2023-05-18T10:03:36;100515.31;;;18.18;60.92
64967;BME280;51710;38.732;-121.358;2023-05-18T10:06:08;100512.00;;;18.16;60.84
64967;BME280;51710;38.732;-121.358;2023-05-18T10:08:36;100507.63;;;18.15;60.93
64967;BME280;51710;38.732;-121.358;2023-05-18T10:11:03;100510.75;;;18.12;61.12
64967;BME280;51710;38.732;-121.358;2023-05-18T10:13:31;100515.97;;;18.07;61.25
64967;BME280;51710;38.732;-121.358;2023-05-18T10:16:00;100509.53;;;18.02;61.44
64967;BME280;51710;38.732;-121.358;2023-05-18T10:18:28;100516.38;;;17.97;61.43
64967;BME280;51710;38.732;-121.358;2023-05-18T10:20:58;100517.84;;;17.93;61.38
64967;BME280;51710;38.732;-121.358;2023-05-18T10:23:28;100509.16;;;17.91;61.52
64967;BME280;51710;38.732;-121.358;2023-05-18T10:25:56;100503.75;;;17.91;61.81
64967;BME280;51710;38.732;-121.358;2023-05-18T10:28:32;100507.69;;;17.95;61.84
64967;BME280;51710;38.732;-121.358;2023-05-18T10:30:59;100504.38;;;17.93;61.53
64967;BME280;51710;38.732;-121.358;2023-05-18T10:33:27;100508.31;;;17.91;61.73
64967;BME280;51710;38.732;-121.358;2023-05-18T10:35:54;100510.59;;;17.87;61.87
64967;BME280;51710;38.732;-121.358;2023-05-18T10:38:25;100515.34;;;17.85;61.96
64967;BME280;51710;38.732;-121.358;2023-05-18T10:40:54;100508.31;;;17.84;61.79
64967;BME280;51710;38.732;-121.358;2023-05-18T10:43:22;100512.06;;;17.83;62.17
64967;BME280;51710;38.732;-121.358;2023-05-18T10:45:57;100511.03;;;17.84;62.01
64967;BME280;51710;38.732;-121.358;2023-05-18T10:48:25;100508.31;;;17.84;62.11
64967;BME280;51710;38.732;-121.358;2023-05-18T10:50:54;100517.44;;;17.90;62.18
64967;BME280;51710;38.732;-121.358;2023-05-18T10:53:23;100507.06;;;17.93;62.24
64967;BME280;51710;38.732;-121.358;2023-05-18T10:55:52;100509.97;;;17.92;62.02
64967;BME280;51710;38.732;-121.358;2023-05-18T10:58:22;100521.59;;;17.86;62.22
64967;BME280;51710;38.732;-121.358;2023-05-18T11:00:56;100508.75;;;17.81;62.34
64967;BME280;51710;38.732;-121.358;2023-05-18T11:03:24;100515.59;;;17.77;62.60
64967;BME280;51710;38.732;-121.358;2023-05-18T11:06:09;100514.97;;;17.75;62.56
64967;BME280;51710;38.732;-121.358;2023-05-18T11:08:47;100515.81;;;17.76;62.21
64967;BME280;51710;38.732;-121.358;2023-05-18T11:11:15;100507.94;;;17.74;62.35
64967;BME280;51710;38.732;-121.358;2023-05-18T11:13:48;100504.63;;;17.72;62.67
64967;BME280;51710;38.732;-121.358;2023-05-18T11:16:15;100506.69;;;17.70;62.68
64967;BME280;51710;38.732;-121.358;2023-05-18T11:18:43;100505.63;;;17.71;62.77
64967;BME280;51710;38.732;-121.358;2023-05-18T11:24:19;100502.13;;;17.71;62.83
64967;BME280;51710;38.732;-121.358;2023-05-18T11:27:15;100512.06;;;17.70;62.66
64967;BME280;51710;38.732;-121.358;2023-05-18T11:29:44;100516.84;;;17.68;62.70
64967;BME280;51710;38.732;-121.358;2023-05-18T11:32:28;100513.50;;;17.66;63.09
64967;BME280;51710;38.732;-121.358;2023-05-18T11:34:58;100510.19;;;17.64;63.03
64967;BME280;51710;38.732;-121.358;2023-05-18T11:42:58;100517.06;;;17.60;63.40
64967;BME280;51710;38.732;-121.358;2023-05-18T11:45:25;100520.78;;;17.59;63.24
64967;BME280;51710;38.732;-121.358;2023-05-18T11:48:00;100517.06;;;17.60;63.18
64967;BME280;51710;38.732;-121.358;2023-05-18T11:50:29;100528.22;;;17.57;63.34
64967;BME280;51710;38.732;-121.358;2023-05-18T11:52:56;100538.59;;;17.54;63.56
64967;BME280;51710;38.732;-121.358;2023-05-18T11:55:36;100536.50;;;17.49;63.58
64967;BME280;51710;38.732;-121.358;2023-05-18T11:58:06;100539.41;;;17.48;63.61
64967;BME280;51710;38.732;-121.358;2023-05-18T12:00:35;100539.63;;;17.46;64.15
64967;BME280;51710;38.732;-121.358;2023-05-18T12:03:02;100531.94;;;17.43;63.93
64967;BME280;51710;38.732;-121.358;2023-05-18T12:05:29;100546.22;;;17.37;63.93
64967;BME280;51710;38.732;-121.358;2023-05-18T12:07:57;100543.72;;;17.36;64.01
64967;BME280;51710;38.732;-121.358;2023-05-18T12:10:24;100546.63;;;17.34;63.99
64967;BME280;51710;38.732;-121.358;2023-05-18T12:12:51;100550.34;;;17.33;64.31
64967;BME280;51710;38.732;-121.358;2023-05-18T12:15:21;100550.13;;;17.28;63.89
64967;BME280;51710;38.732;-121.358;2023-05-18T12:17:49;100541.41;;;17.20;64.26
64967;BME280;51710;38.732;-121.358;2023-05-18T12:20:17;100530.44;;;17.15;64.53
64967;BME280;51710;38.732;-121.358;2023-05-18T12:22:46;100535.41;;;17.11;64.74
64967;BME280;51710;38.732;-121.358;2023-05-18T12:25:17;100534.78;;;17.09;64.58
64967;BME280;51710;38.732;-121.358;2023-05-18T12:27:45;100528.34;;;17.04;64.72
64967;BME280;51710;38.732;-121.358;2023-05-18T12:30:23;100528.97;;;16.99;64.73
64967;BME280;51710;38.732;-121.358;2023-05-18T12:32:51;100535.16;;;16.93;64.83
64967;BME280;51710;38.732;-121.358;2023-05-18T12:35:27;100535.13;;;16.86;65.19
64967;BME280;51710;38.732;-121.358;2023-05-18T12:37:54;100536.38;;;16.84;65.32
64967;BME280;51710;38.732;-121.358;2023-05-18T12:40:23;100534.06;;;16.81;65.55
64967;BME280;51710;38.732;-121.358;2023-05-18T12:42:54;100529.53;;;16.75;65.31
64967;BME280;51710;38.732;-121.358;2023-05-18T12:45:23;100533.00;;;16.69;65.60